createdAt,value
2022-09-10T00:02:46.108Z,0
2022-09-10T00:07:47.968Z,0
2022-09-10T00:12:49.839Z,0.88715
2022-09-10T00:17:51.917Z,0.88715
2022-09-10T00:22:53.694Z,0.88715
2022-09-10T00:27:55.508Z,0.88715
2022-09-10T00:32:57.906Z,0.88715
2022-09-10T00:37:59.624Z,0.88715
2022-09-10T00:43:01.391Z,0.88715
2022-09-10T00:48:03.602Z,0.88715
2022-09-10T00:53:05.495Z,0.88715
2022-09-10T00:58:07.044Z,0.88715
2022-09-10T01:03:09.163Z,0.88715
2022-09-10T01:08:10.937Z,0.88715
2022-09-10T01:13:12.554Z,0.88715
2022-09-10T01:18:14.709Z,0.88715
2022-09-10T01:23:17.958Z,0
2022-09-10T01:28:20.290Z,0.88715
2022-09-10T01:33:22.431Z,0
2022-09-10T01:38:24.314Z,0
2022-09-10T01:43:26.197Z,0
2022-09-10T01:48:27.918Z,0.88715
2022-09-10T01:53:29.899Z,0
2022-09-10T01:58:31.310Z,0
2022-09-10T02:03:33.455Z,0.88715
2022-09-10T02:08:35.152Z,0.88715
2022-09-10T02:13:36.899Z,0.88715
2022-09-10T02:18:39.228Z,0.88715
2022-09-10T02:23:41.146Z,0
2022-09-10T02:28:42.786Z,0
2022-09-10T02:33:44.614Z,0
2022-09-10T02:38:46.532Z,0.88715
2022-09-10T02:43:48.322Z,0.88715
2022-09-10T02:48:50.688Z,0.88715
2022-09-10T02:53:52.477Z,0.88715
2022-09-10T02:58:54.372Z,0.88715
2022-09-10T03:03:56.382Z,0
2022-09-10T03:08:58.197Z,0.88715
2022-09-10T03:14:00.069Z,0
2022-09-10T03:19:02.861Z,0
2022-09-10T03:24:05.299Z,0.88715
2022-09-10T03:29:07.273Z,0.88715
2022-09-10T03:34:09.187Z,0.88715
2022-09-10T03:39:10.826Z,0.88715
2022-09-10T03:44:12.623Z,0.88715
2022-09-10T03:49:15.029Z,1.16185
2022-09-10T03:54:16.891Z,0.8296
2022-09-10T03:59:18.794Z,1.83695
2022-09-10T04:04:20.894Z,4.0295
2022-09-10T04:09:22.555Z,14.4404
2022-09-10T04:14:24.541Z,26.98115
2022-09-10T04:19:26.958Z,44.5382
2022-09-10T04:24:28.637Z,72.60705
2022-09-10T04:29:30.143Z,103.79255
2022-09-10T04:34:32.123Z,127.5829
2022-09-10T04:39:33.930Z,161.7006
2022-09-10T04:44:35.503Z,189.585
2022-09-10T04:49:37.491Z,213.1909
2022-09-10T04:54:39.091Z,763.73445
2022-09-10T04:59:40.648Z,258.6875
2022-09-10T05:04:42.756Z,272.94345
2022-09-10T05:09:44.496Z,292.27085
2022-09-10T05:14:46.050Z,302.67235
2022-09-10T05:19:48.544Z,330.55675
2022-09-10T05:24:50.526Z,365.2468
2022-09-10T05:29:52.010Z,387.58055
2022-09-10T05:34:53.994Z,409.9333
2022-09-10T05:39:55.860Z,462.51315
2022-09-10T05:44:57.872Z,509.54235
2022-09-10T05:50:00.133Z,553.85995
2022-09-10T05:55:02.119Z,588.9379
2022-09-10T06:00:04.012Z,622.4851
2022-09-10T06:05:06.239Z,650.22305
2022-09-10T06:10:08.024Z,675.0288
2022-09-10T06:15:09.864Z,701.42045
2022-09-10T06:20:12.137Z,718.33285
2022-09-10T06:25:14.124Z,743.69195
2022-09-10T06:30:16.214Z,758.2255
2022-09-10T06:35:18.252Z,782.29345
2022-09-10T06:40:20.267Z,813.51695
2022-09-10T06:45:21.792Z,837.78835
2022-09-10T06:50:23.721Z,848.1727
2022-09-10T06:55:25.369Z,876.03995
2022-09-10T07:00:27.337Z,898.33755
2022-09-10T07:05:28.848Z,916.00675
2022-09-10T07:10:30.255Z,940.75735
2022-09-10T07:15:32.151Z,957.19055
2022-09-10T07:20:35.272Z,987.56595
2022-09-10T07:25:36.699Z,1005.23515
2022-09-10T07:30:38.641Z,1026.3899
2022-09-10T07:35:40.426Z,1033.97135
2022-09-10T07:40:42.046Z,1076.96165
2022-09-10T07:45:43.674Z,1104.29455
2022-09-10T07:50:45.841Z,1138.6537
2022-09-10T07:55:47.914Z,1150.64295
2022-09-10T08:00:49.927Z,1172.09245
2022-09-10T08:05:51.951Z,1204.57095
2022-09-10T08:10:53.716Z,1231.03675
2022-09-10T08:15:55.694Z,1254.93925
2022-09-10T08:20:58.096Z,1316.27955
2022-09-10T08:25:59.647Z,1334.3728
2022-09-10T08:31:01.185Z,1343.28155
2022-09-10T08:36:03.285Z,1417.1626
2022-09-10T08:41:04.739Z,1455.19175
2022-09-10T08:46:06.358Z,1502.9949
2022-09-10T08:51:08.502Z,1526.97155
2022-09-10T08:56:10.160Z,1571.15985
2022-09-10T09:01:11.803Z,1600.40955
2022-09-10T09:06:13.977Z,1612.78485
2022-09-10T09:11:15.730Z,1624.68095
2022-09-10T09:16:17.504Z,1721.856
2022-09-10T09:21:19.509Z,1753.13465
2022-09-10T09:26:21.404Z,1767.83365
2022-09-10T09:31:23.599Z,1797.82115
2022-09-10T09:36:25.626Z,1837.97055
2022-09-10T09:41:27.399Z,1913.01345
2022-09-10T09:46:29.585Z,1937.0624
2022-09-10T09:51:31.332Z,1982.02465
2022-09-10T09:56:33.144Z,2069.6996
2022-09-10T10:01:35.027Z,2082.4438
2022-09-10T10:06:36.745Z,2120.04705
2022-09-10T10:11:38.743Z,2175.00575
2022-09-10T10:16:40.192Z,2239.11095
2022-09-10T10:21:42.394Z,2295.39695
2022-09-10T10:26:44.331Z,2331.323
2022-09-10T10:31:46.319Z,2281.3616
2022-09-10T10:36:48.705Z,2369.7192
2022-09-10T10:41:50.648Z,2481.84815
2022-09-10T10:46:52.541Z,2524.635
2022-09-10T10:51:54.780Z,2525.77785
2022-09-10T10:56:56.717Z,2572.98965
2022-09-10T11:01:58.755Z,2621.41845
2022-09-10T11:07:00.908Z,2518.2571
2022-09-10T11:12:02.895Z,2587.63535
2022-09-10T11:17:05.140Z,2620.68065
2022-09-10T11:22:07.590Z,2589.7709
2022-09-10T11:27:09.345Z,2667.3201
2022-09-10T11:32:11.119Z,2651.754
2022-09-10T11:37:13.269Z,2728.98945
2022-09-10T11:42:15.272Z,2682.3843
2022-09-10T11:47:17.504Z,2676.0217
2022-09-10T11:52:19.821Z,2709.6032
2022-09-10T11:57:21.568Z,2690.717
2022-09-10T12:02:23.421Z,2671.27745
2022-09-10T12:07:25.812Z,2651.13625
2022-09-10T12:12:27.824Z,2726.69265
2022-09-10T12:17:29.865Z,2721.14015
2022-09-10T12:22:31.782Z,2673.13355
2022-09-10T12:27:33.777Z,2687.8117
2022-09-10T12:32:35.278Z,2647.8829
2022-09-10T12:37:36.867Z,2628.92255
2022-09-10T12:42:38.368Z,2621.9686
2022-09-10T12:47:39.837Z,2628.7724
2022-09-10T12:52:41.524Z,2637.1811
2022-09-10T12:57:43.389Z,2573.9963
2022-09-10T13:02:45.159Z,2576.33715
2022-09-10T13:07:47.539Z,2501.4977
2022-09-10T13:12:49.535Z,2468.72445
2022-09-10T13:17:51.502Z,2448.14205
2022-09-10T13:22:53.845Z,2392.81445
2022-09-10T13:27:55.668Z,2365.26095
2022-09-10T13:32:57.284Z,2267.5534
2022-09-10T13:37:59.403Z,2239.7603
2022-09-10T13:43:02.326Z,2107.30755
2022-09-10T13:48:04.524Z,2044.51065
2022-09-10T13:53:06.856Z,1975.0564
2022-09-10T13:58:08.813Z,1875.0803
2022-09-10T14:03:10.921Z,1813.46425
2022-09-10T14:08:12.844Z,1755.22345
2022-09-10T14:13:14.607Z,1690.6752
2022-09-10T14:18:16.422Z,1633.0429
2022-09-10T14:23:18.524Z,1545.73685
2022-09-10T14:28:20.426Z,1452.51125
2022-09-10T14:33:22.364Z,1385.58415
2022-09-10T14:38:24.664Z,1278.28705
2022-09-10T14:43:26.433Z,1151.9573
2022-09-10T14:48:28.500Z,1040.32655
2022-09-10T14:53:30.547Z,898.4687
2022-09-10T14:58:32.482Z,777.0811
2022-09-10T15:03:34.336Z,637.52795
2022-09-10T15:08:35.821Z,505.1855
2022-09-10T15:13:37.593Z,385.6234
2022-09-10T15:18:39.363Z,288.74495
2022-09-10T15:23:41.362Z,225.17785
2022-09-10T15:28:43.036Z,175.4016
2022-09-10T15:33:44.533Z,125.15145
2022-09-10T15:38:46.965Z,85.56765
2022-09-10T15:43:48.588Z,73.90005
2022-09-10T15:48:50.459Z,59.55095
2022-09-10T15:53:52.711Z,39.4116
2022-09-10T15:58:54.494Z,23.8645
2022-09-10T16:03:56.283Z,12.30115
2022-09-10T16:08:58.050Z,4.148
2022-09-10T16:14:04.035Z,2.1925
2022-09-10T16:19:06.157Z,0.47405
2022-09-10T16:24:08.117Z,0
2022-09-10T16:29:09.554Z,0.88715
2022-09-10T16:34:11.516Z,0.88715
2022-09-10T16:39:13.779Z,0.88715
2022-09-10T16:44:15.927Z,0.88715
2022-09-10T16:49:17.957Z,0.88715
2022-09-10T16:54:20.155Z,0
2022-09-10T16:59:22.405Z,0
2022-09-10T17:04:28.528Z,0
2022-09-10T17:09:31.209Z,0.88715
2022-09-10T17:14:32.687Z,0.88715
2022-09-10T17:19:34.375Z,0.88715
2022-09-10T17:24:36.320Z,0.88715
2022-09-10T17:29:38.109Z,0.88715
2022-09-10T17:34:40.250Z,0
2022-09-10T17:39:42.172Z,0
2022-09-10T17:44:43.937Z,0
2022-09-10T17:49:45.886Z,0.88715
2022-09-10T17:54:48.200Z,0
2022-09-10T17:59:50.194Z,0.88715
2022-09-10T18:04:52.103Z,0
2022-09-10T18:09:53.918Z,0
2022-09-10T18:14:55.765Z,0
2022-09-10T18:19:57.337Z,0.88715
2022-09-10T18:24:59.426Z,0
2022-09-10T18:30:01.179Z,0.88715
2022-09-10T18:35:03.359Z,0
2022-09-10T18:40:05.509Z,0.88715
2022-09-10T18:45:07.350Z,0.88715
2022-09-10T18:50:09.177Z,0
2022-09-10T18:55:11.345Z,0
2022-09-10T19:00:13.460Z,0.88715
2022-09-10T19:05:15.364Z,0.88715
2022-09-10T19:10:17.129Z,0
2022-09-10T19:15:19.091Z,0
2022-09-10T19:20:20.860Z,0.88715
2022-09-10T19:25:23.137Z,0.88715
2022-09-10T19:30:25.084Z,0
2022-09-10T19:35:26.863Z,0
2022-09-10T19:40:29.155Z,0
2022-09-10T19:45:30.939Z,0.88715
2022-09-10T19:50:32.840Z,0
2022-09-10T19:55:34.919Z,0
2022-09-10T20:00:46.701Z,0.88715
2022-09-10T20:05:49.087Z,0.88715
2022-09-10T20:10:51.174Z,0.88715
2022-09-10T20:15:53.423Z,0.88715
2022-09-10T20:20:55.500Z,0
2022-09-10T20:25:57.942Z,0
2022-09-10T20:30:59.807Z,0.88715
2022-09-10T20:36:01.701Z,0.88715
2022-09-10T20:41:03.893Z,0
2022-09-10T20:46:05.606Z,0.88715
2022-09-10T20:51:07.669Z,0.88715
2022-09-10T20:56:09.776Z,0.88715
2022-09-10T21:01:11.335Z,0
2022-09-10T21:06:13.194Z,0.88715
2022-09-10T21:11:15.310Z,0
2022-09-10T21:16:16.794Z,0.88715
2022-09-10T21:21:19.916Z,0.88715
2022-09-10T21:26:22.216Z,0
2022-09-10T21:31:23.773Z,0
2022-09-10T21:36:25.613Z,0.88715
2022-09-10T21:41:27.128Z,0.88715
2022-09-10T21:46:29.165Z,0.88715
2022-09-10T21:51:31.059Z,0.88715
2022-09-10T21:56:33.152Z,0.88715
2022-09-10T22:01:34.706Z,0
2022-09-10T22:06:36.382Z,0.88715
2022-09-10T22:11:38.300Z,0.88715
2022-09-10T22:16:40.089Z,0
2022-09-10T22:21:41.932Z,0.88715
2022-09-10T22:26:44.331Z,0
2022-09-10T22:31:46.315Z,0.88715
2022-09-10T22:36:48.282Z,0.88715
2022-09-10T22:41:50.633Z,0
2022-09-10T22:46:52.452Z,0.88715
2022-09-10T22:51:54.182Z,0.88715
2022-09-10T22:56:56.599Z,0.88715
2022-09-10T23:01:58.630Z,0.88715
2022-09-10T23:07:00.435Z,0
2022-09-10T23:12:02.321Z,0.88715
2022-09-10T23:17:04.211Z,0.88715
2022-09-10T23:22:06.299Z,0.88715
2022-09-10T23:27:08.291Z,0.88715
2022-09-10T23:32:10.064Z,0.88715
2022-09-10T23:37:11.871Z,0.88715
2022-09-10T23:42:13.781Z,0
2022-09-10T23:47:15.501Z,0
2022-09-10T23:52:17.482Z,0.88715
2022-09-10T23:57:19.343Z,0
